Time;durP1;ratioP1;P1;durP2;ratioP2;P2;SDS_P1;SDS_P2;PMS_P1;PMS_P2;Temp;Humidity;BMP_temperature;BMP_pressure;BME280_temperature;BME280_humidity;BME280_pressure;Samples;Min_cycle;Max_cycle;Signal;HPM_P1;HPM_P2
2023/08/28 00:00:07;;;;;;;;;;;;;;;;;;;;;
2023/08/28 00:02:38;;;;;;;15.02;8.70;;;;;;;31.68;34.67;100944.88;5022704;28;20555;-70
2023/08/28 00:05:08;;;;;;;11.70;7.90;;;;;;;31.65;35.40;100942.38;5029760;28;20042;-74
2023/08/28 00:07:45;;;;;;;10.75;8.00;;;;;;;31.52;34.55;100940.38;5031202;28;20084;-77
2023/08/28 00:10:19;;;;;;;10.82;8.13;;;;;;;31.54;35.07;100950.13;5029250;28;20053;-75
2023/08/28 00:12:49;;;;;;;12.95;9.00;;;;;;;31.51;35.45;100951.16;5030027;28;20045;-74
2023/08/28 00:15:22;;;;;;;11.40;8.93;;;;;;;31.50;34.70;100955.66;5023394;28;20136;-74
2023/08/28 00:17:57;;;;;;;12.13;9.30;;;;;;;31.41;34.70;100947.28;5026953;28;20053;-73
2023/08/28 00:20:30;;;;;;;12.13;8.85;;;;;;;31.32;35.28;100940.59;5025172;28;20049;-73
2023/08/28 00:23:04;;;;;;;12.40;9.05;;;;;;;31.31;35.01;100945.09;5024512;28;20053;-75
2023/08/28 00:25:35;;;;;;;12.15;8.73;;;;;;;31.31;34.81;100944.19;5028786;28;20633;-75
2023/08/28 00:28:06;;;;;;;11.98;8.45;;;;;;;31.35;35.01;100945.75;5021995;28;20056;-75
2023/08/28 00:30:38;;;;;;;11.82;8.60;;;;;;;31.30;34.87;100950.50;5025816;28;20078;-73
2023/08/28 00:33:11;;;;;;;12.00;8.55;;;;;;;31.20;35.88;100943.91;5023275;28;20053;-73
2023/08/28 00:35:43;;;;;;;14.18;9.60;;;;;;;31.15;35.42;100954.00;5029701;28;20149;-72
2023/08/28 00:38:11;;;;;;;;;;;;;;;31.10;35.66;100946.22;5030883;28;20045;-76
2023/08/28 00:40:48;;;;;;;11.85;8.23;;;;;;;31.06;36.28;100956.22;5028854;28;19948;-73
2023/08/28 00:43:17;;;;;;;10.82;7.60;;;;;;;30.98;35.75;100952.22;5027820;28;20057;-77
2023/08/28 00:45:49;;;;;;;10.98;8.00;;;;;;;30.95;35.84;100942.56;5027241;28;20053;-74
2023/08/28 00:48:42;;;;;;;12.82;8.52;;;;;;;30.79;36.36;100941.63;5028799;28;20045;-73
2023/08/28 00:51:50;;;;;;;;;;;;;;;;;;;;;
2023/08/28 00:54:30;;;;;;;10.35;7.65;;;;;;;30.69;36.29;100943.88;5029192;28;20049;-74
2023/08/28 00:57:07;;;;;;;13.00;8.15;;;;;;;30.67;36.59;100953.78;5023312;28;20053;-74
2023/08/28 00:59:44;;;;;;;11.02;8.00;;;;;;;30.62;36.34;100947.81;5028981;28;20053;-70
2023/08/28 01:02:16;;;;;;;12.07;8.32;;;;;;;30.52;36.91;100950.09;5023396;28;20045;-75
2023/08/28 01:04:51;;;;;;;10.68;8.07;;;;;;;30.46;37.54;100950.41;5032060;28;20566;-76
2023/08/28 01:07:37;;;;;;;14.95;8.60;;;;;;;30.41;37.15;100947.09;5025366;28;20140;-73
2023/08/28 01:10:18;;;;;;;10.07;7.95;;;;;;;30.34;37.54;100956.38;5027903;28;20054;-72
2023/08/28 01:15:55;;;;;;;10.50;7.97;;;;;;;29.97;38.56;100961.69;5018556;28;20491;-74
2023/08/28 01:18:40;;;;;;;10.00;7.93;;;;;;;29.84;38.47;100961.38;5029354;28;20053;-77
2023/08/28 01:21:11;;;;;;;12.35;8.40;;;;;;;29.78;38.31;100964.38;5023156;28;20053;-71
2023/08/28 01:23:50;;;;;;;11.47;7.93;;;;;;;29.71;38.30;100962.94;5018994;28;20056;-74
2023/08/28 01:26:21;;;;;;;13.07;8.20;;;;;;;29.63;39.02;100970.38;5023562;28;20049;-73
2023/08/28 01:28:49;;;;;;;10.17;7.43;;;;;;;29.53;39.48;100964.63;5024880;28;20053;-72
2023/08/28 01:31:18;;;;;;;10.43;7.93;;;;;;;29.40;39.42;100961.63;5022922;28;20773;-72
2023/08/28 01:33:49;;;;;;;11.35;7.75;;;;;;;29.33;40.26;100962.84;5025082;28;20505;-73
2023/08/28 01:36:24;;;;;;;11.35;7.00;;;;;;;29.27;40.39;100962.28;5026229;28;20069;-72
2023/08/28 01:39:00;;;;;;;7.45;6.22;;;;;;;29.17;40.25;100967.16;5022292;28;20526;-74
2023/08/28 01:41:35;;;;;;;13.77;6.97;;;;;;;29.08;41.27;100968.44;5026963;28;20041;-73
2023/08/28 01:44:07;;;;;;;9.70;6.85;;;;;;;28.98;40.72;100969.75;5022760;28;20115;-74
2023/08/28 01:46:48;;;;;;;9.88;6.45;;;;;;;28.87;40.51;100964.88;5026252;28;20057;-78
2023/08/28 01:49:19;;;;;;;9.90;7.03;;;;;;;28.76;40.84;100965.34;5030455;28;20049;-72
2023/08/28 01:51:58;;;;;;;8.55;6.00;;;;;;;28.67;40.85;100972.88;5021943;28;20048;-74
2023/08/28 01:54:26;;;;;;;9.13;5.80;;;;;;;28.57;40.75;100972.41;5027741;28;20045;-74
2023/08/28 01:57:03;;;;;;;9.85;6.25;;;;;;;28.49;40.95;100975.34;5025348;28;20052;-75
2023/08/28 01:59:31;;;;;;;8.40;5.75;;;;;;;28.36;40.60;100976.78;5024794;28;20124;-73
2023/08/28 02:02:00;;;;;;;7.05;5.55;;;;;;;28.18;41.11;100976.59;5028005;28;20042;-75
2023/08/28 02:04:34;;;;;;;9.00;6.18;;;;;;;27.94;41.50;100988.22;5028638;28;20204;-74
2023/08/28 02:07:02;;;;;;;9.85;5.35;;;;;;;27.76;41.92;100987.97;5023051;28;20057;-71
2023/08/28 02:09:31;;;;;;;12.15;6.45;;;;;;;27.62;41.98;100997.38;5027371;28;20049;-72
2023/08/28 02:12:01;;;;;;;9.80;5.82;;;;;;;27.46;41.92;101002.41;5026064;28;20046;-74
2023/08/28 02:14:32;;;;;;;8.52;5.20;;;;;;;27.30;42.64;101002.09;5027870;28;20554;-74
2023/08/28 02:17:03;;;;;;;9.52;5.60;;;;;;;27.13;42.96;101006.19;5020005;28;20077;-75
2023/08/28 02:19:32;;;;;;;7.60;5.57;;;;;;;26.88;43.71;101011.50;5025282;28;20053;-72
2023/08/28 02:22:00;;;;;;;8.48;5.70;;;;;;;26.53;44.64;101013.53;5025246;28;20088;-73
2023/08/28 02:24:29;;;;;;;17.15;6.15;;;;;;;26.28;44.93;101012.59;5020434;28;20089;-75
2023/08/28 02:27:05;;;;;;;9.00;5.88;;;;;;;26.10;45.59;101012.22;5028855;28;20053;-71
2023/08/28 02:29:33;;;;;;;9.40;6.15;;;;;;;25.98;45.87;101014.41;5028257;28;20061;-77
2023/08/28 02:32:02;;;;;;;7.80;5.47;;;;;;;25.80;46.78;101023.75;5024530;28;20057;-71
2023/08/28 02:34:31;;;;;;;10.00;5.75;;;;;;;25.49;47.11;101027.25;5026377;28;20140;-73
2023/08/28 02:36:59;;;;;;;8.68;5.95;;;;;;;25.22;47.84;101027.13;5023127;28;20132;-69
2023/08/28 02:39:30;;;;;;;9.15;5.45;;;;;;;25.04;48.59;101025.81;5022505;28;20049;-73
2023/08/28 02:41:59;;;;;;;10.23;6.10;;;;;;;24.97;48.31;101032.16;5028046;28;20060;-73
2023/08/28 02:44:29;;;;;;;11.02;5.72;;;;;;;24.87;49.01;101031.50;5025879;28;20507;-72
2023/08/28 02:46:57;;;;;;;9.27;6.25;;;;;;;24.71;49.29;101034.59;5029692;28;20061;-73
2023/08/28 02:49:28;;;;;;;7.30;5.28;;;;;;;24.57;50.22;101045.53;5026227;28;20064;-73
2023/08/28 02:51:56;;;;;;;7.70;5.38;;;;;;;24.42;50.79;101049.38;5030120;28;20051;-74
2023/08/28 02:54:25;;;;;;;10.73;5.43;;;;;;;24.28;50.53;101047.06;5033188;28;20045;-78
2023/08/28 02:56:53;;;;;;;8.75;5.60;;;;;;;24.14;51.77;101043.81;5034208;28;20140;-71
2023/08/28 02:59:22;;;;;;;9.85;5.90;;;;;;;23.98;52.73;101049.47;5034900;28;20057;-70
2023/08/28 03:01:53;;;;;;;9.38;5.43;;;;;;;23.81;52.95;101056.88;5029800;28;20038;-73
2023/08/28 03:04:22;;;;;;;8.40;6.10;;;;;;;23.68;53.08;101060.63;5039362;28;20041;-76
2023/08/28 03:06:51;;;;;;;8.02;5.30;;;;;;;23.51;54.04;101066.25;5037114;28;20056;-77
2023/08/28 03:09:19;;;;;;;10.70;5.90;;;;;;;23.47;54.83;101065.41;5048000;28;20044;-72
2023/08/28 03:11:48;;;;;;;7.80;5.72;;;;;;;23.43;54.82;101074.28;5032343;28;20037;-73
2023/08/28 03:14:16;;;;;;;8.93;5.95;;;;;;;23.41;54.48;101079.63;5033424;28;20045;-76
2023/08/28 03:16:45;;;;;;;10.27;6.88;;;;;;;23.33;55.27;101076.25;5025833;28;20140;-74
2023/08/28 03:19:15;;;;;;;9.73;5.72;;;;;;;23.23;55.55;101084.34;5020853;28;20208;-73
2023/08/28 03:21:43;;;;;;;9.82;6.03;;;;;;;23.09;56.34;101082.84;5030404;28;20054;-72
2023/08/28 03:24:12;;;;;;;10.65;6.43;;;;;;;22.98;56.31;101090.91;5029690;28;20096;-72
2023/08/28 03:26:43;;;;;;;9.93;6.75;;;;;;;22.88;56.75;101096.34;5032163;28;20052;-75
2023/08/28 03:29:12;;;;;;;10.25;6.75;;;;;;;22.80;56.51;101104.38;5031688;28;20057;-73
2023/08/28 03:31:40;;;;;;;10.52;5.85;;;;;;;22.73;57.06;101106.25;5024680;28;20048;-72
2023/08/28 03:34:09;;;;;;;9.32;6.28;;;;;;;22.71;57.18;101113.31;5029240;28;20065;-73
2023/08/28 03:36:39;;;;;;;10.18;6.53;;;;;;;22.64;57.67;101114.28;5029243;28;20573;-73
2023/08/28 03:39:08;;;;;;;18.52;6.65;;;;;;;22.50;58.47;101117.13;5028807;28;20049;-73
2023/08/28 03:41:36;;;;;;;9.18;6.63;;;;;;;22.36;58.70;101122.59;5028719;28;20045;-72
2023/08/28 03:44:05;;;;;;;9.30;6.30;;;;;;;22.27;59.06;101117.44;5032108;28;20053;-74
2023/08/28 03:46:34;;;;;;;11.25;7.10;;;;;;;22.17;59.47;101121.03;5023497;28;20064;-75
2023/08/28 03:49:05;;;;;;;9.52;7.10;;;;;;;22.12;59.87;101122.88;5023382;28;20049;-74
2023/08/28 03:51:33;;;;;;;12.23;7.18;;;;;;;22.08;60.26;101129.06;5025044;28;20049;-75
2023/08/28 03:54:11;;;;;;;12.98;6.78;;;;;;;21.97;60.26;101118.69;5017575;28;20052;-71
2023/08/28 03:56:40;;;;;;;10.90;6.97;;;;;;;21.99;60.79;101135.34;5014008;28;20088;-74
2023/08/28 03:59:11;;;;;;;12.20;7.32;;;;;;;21.96;60.46;101143.25;5021851;28;20049;-79
2023/08/28 04:01:39;;;;;;;10.65;6.90;;;;;;;21.95;60.26;101142.41;5025104;28;20057;-74
2023/08/28 04:04:08;;;;;;;10.10;6.75;;;;;;;21.89;61.62;101138.97;5016568;28;20392;-72
2023/08/28 04:06:37;;;;;;;11.40;6.68;;;;;;;21.78;61.52;101149.59;5026905;28;20046;-74
2023/08/28 04:09:10;;;;;;;11.38;7.22;;;;;;;21.75;61.75;101144.38;5023262;28;20055;-74
2023/08/28 04:11:38;;;;;;;11.30;6.63;;;;;;;21.74;61.61;101155.81;5021498;28;20350;-74
2023/08/28 04:14:07;;;;;;;11.77;7.40;;;;;;;21.72;62.19;101161.09;5016661;28;20041;-74
2023/08/28 04:16:36;;;;;;;10.30;6.90;;;;;;;21.71;61.69;101167.22;5027797;28;20442;-74
2023/08/28 04:19:05;;;;;;;12.38;7.13;;;;;;;21.71;61.65;101163.72;5025323;28;20058;-74
2023/08/28 04:21:34;;;;;;;13.80;6.80;;;;;;;21.70;61.97;101162.84;5021390;28;20052;-78
2023/08/28 04:24:02;;;;;;;11.77;7.30;;;;;;;21.63;63.14;101166.44;5016195;28;20487;-72
2023/08/28 04:26:36;;;;;;;11.55;7.35;;;;;;;21.48;63.16;101164.81;5020808;28;20061;-74
2023/08/28 04:29:05;;;;;;;10.27;6.72;;;;;;;21.48;63.28;101177.97;5014915;28;20101;-75
2023/08/28 04:31:36;;;;;;;11.82;7.20;;;;;;;21.42;64.04;101177.19;5020231;28;20056;-76
2023/08/28 04:34:04;;;;;;;10.57;7.28;;;;;;;21.38;63.97;101181.56;5028887;28;20065;-74
2023/08/28 04:36:33;;;;;;;12.05;7.00;;;;;;;21.34;63.96;101180.69;5022630;28;20046;-77
2023/08/28 04:39:02;;;;;;;10.25;7.20;;;;;;;21.34;63.60;101177.19;5026171;28;20059;-75
2023/08/28 04:41:30;;;;;;;13.25;7.47;;;;;;;21.34;64.02;101177.19;5015663;28;20053;-76
2023/08/28 04:44:03;;;;;;;10.68;6.68;;;;;;;21.32;63.86;101184.22;5028730;28;20061;-73
2023/08/28 04:46:31;;;;;;;10.93;6.75;;;;;;;21.23;64.38;101176.41;5025581;28;20059;-74
2023/08/28 04:49:00;;;;;;;11.15;6.72;;;;;;;21.20;64.88;101172.03;5023735;28;20083;-74
2023/08/28 04:51:29;;;;;;;11.43;7.22;;;;;;;21.13;65.50;101176.47;5023182;28;20034;-74
2023/08/28 04:53:59;;;;;;;11.43;7.32;;;;;;;21.03;65.09;101184.47;5021218;28;20054;-75
2023/08/28 04:56:30;;;;;;;11.75;7.00;;;;;;;20.96;65.70;101180.09;5023264;28;20045;-74
2023/08/28 04:59:01;;;;;;;9.40;6.13;;;;;;;20.88;66.25;101180.16;5026216;28;20045;-75
2023/08/28 05:01:29;;;;;;;10.10;5.53;;;;;;;20.74;66.98;101188.13;5022255;28;20041;-73
2023/08/28 05:03:58;;;;;;;9.25;5.50;;;;;;;20.65;67.75;101183.78;5029560;28;20053;-74
2023/08/28 05:06:28;;;;;;;12.85;6.45;;;;;;;20.62;67.70;101185.59;5017942;28;20435;-75
2023/08/28 05:08:57;;;;;;;11.93;5.60;;;;;;;20.57;68.03;101180.34;5025495;28;20061;-74
2023/08/28 05:11:25;;;;;;;9.98;5.75;;;;;;;20.54;68.01;101176.81;5023247;28;20116;-76
2023/08/28 05:13:54;;;;;;;12.35;6.03;;;;;;;20.52;68.18;101182.06;5022120;28;20701;-76
2023/08/28 05:16:26;;;;;;;11.32;6.38;;;;;;;20.53;68.35;101188.22;5021022;28;20050;-72
2023/08/28 05:18:54;;;;;;;12.50;5.78;;;;;;;20.47;68.82;101186.47;5023652;28;20772;-71
2023/08/28 05:21:23;;;;;;;9.48;5.88;;;;;;;20.36;68.90;101181.25;5021037;28;20046;-72
2023/08/28 05:23:51;;;;;;;10.73;6.10;;;;;;;20.26;69.57;101187.44;5020827;28;20049;-70
2023/08/28 05:26:20;;;;;;;8.57;5.20;;;;;;;20.17;70.20;101185.72;5021729;28;20041;-74
2023/08/28 05:28:49;;;;;;;10.95;6.20;;;;;;;20.09;70.78;101185.75;5023738;28;20045;-71
2023/08/28 05:31:17;;;;;;;10.73;6.35;;;;;;;20.01;70.65;101192.78;5029239;28;20057;-72
2023/08/28 05:33:47;;;;;;;11.52;7.13;;;;;;;20.01;71.00;101197.16;5022986;28;20164;-72
2023/08/28 05:36:16;;;;;;;9.68;5.32;;;;;;;20.01;71.30;101190.13;5025860;28;20690;-71
2023/08/28 05:38:45;;;;;;;10.93;7.05;;;;;;;20.01;71.46;101184.88;5026272;28;20060;-72
2023/08/28 05:41:14;;;;;;;10.43;6.00;;;;;;;20.05;71.48;101191.88;5029630;28;20130;-71
2023/08/28 05:43:42;;;;;;;10.68;5.10;;;;;;;20.09;71.10;101198.03;5023717;28;20045;-71
2023/08/28 05:46:11;;;;;;;10.95;6.13;;;;;;;20.11;71.15;101198.00;5029940;28;20042;-71
2023/08/28 05:48:39;;;;;;;8.93;4.80;;;;;;;20.08;70.97;101191.00;5027506;28;20060;-72
2023/08/28 05:51:10;;;;;;;11.10;5.07;;;;;;;20.07;70.81;101194.53;5025797;28;20061;-71
2023/08/28 05:53:38;;;;;;;7.28;4.53;;;;;;;20.06;71.05;101198.00;5021888;28;20064;-72
2023/08/28 05:56:07;;;;;;;8.82;5.45;;;;;;;20.02;71.37;101201.50;5026240;28;20416;-71
2023/08/28 05:58:35;;;;;;;9.90;5.30;;;;;;;19.96;71.66;101206.81;5016590;28;20649;-71
2023/08/28 06:01:04;;;;;;;9.43;5.30;;;;;;;19.90;72.14;101212.06;5025678;28;20060;-72
2023/08/28 06:03:33;;;;;;;11.23;4.93;;;;;;;19.78;72.92;101200.69;5025957;28;20045;-72
2023/08/28 06:06:01;;;;;;;12.98;6.57;;;;;;;19.72;73.27;101205.94;5023633;28;20053;-72
2023/08/28 06:08:31;;;;;;;11.15;5.68;;;;;;;19.63;73.90;101203.28;5026650;28;20049;-72
2023/08/28 06:11:00;;;;;;;11.32;6.35;;;;;;;19.58;74.37;101205.06;5027395;28;20087;-71
2023/08/28 06:13:29;;;;;;;9.68;5.30;;;;;;;19.54;74.16;101206.81;5020193;28;20582;-72
2023/08/28 06:15:57;;;;;;;11.13;5.15;;;;;;;19.52;74.66;101212.94;5026415;28;20060;-72
2023/08/28 06:18:26;;;;;;;13.02;5.90;;;;;;;19.50;74.93;101214.69;5023178;28;20052;-74
2023/08/28 06:20:55;;;;;;;11.35;5.25;;;;;;;19.49;74.90;101213.78;5021864;28;20049;-72
2023/08/28 06:23:24;;;;;;;10.13;5.45;;;;;;;19.46;75.14;101222.56;5024857;28;20072;-73
2023/08/28 06:25:54;;;;;;;11.95;5.82;;;;;;;19.43;75.07;101214.69;5020431;28;20049;-72
2023/08/28 06:28:22;;;;;;;9.52;5.28;;;;;;;19.43;75.37;101225.19;5024060;28;20054;-73
2023/08/28 06:30:52;;;;;;;7.85;4.47;;;;;;;19.44;74.83;101216.41;5026515;28;20455;-72
2023/08/28 06:33:21;;;;;;;8.13;4.65;;;;;;;19.44;75.29;101219.03;5022366;28;20060;-73
2023/08/28 06:35:50;;;;;;;10.75;5.28;;;;;;;19.45;74.79;101223.44;5021885;28;20146;-73
2023/08/28 06:38:18;;;;;;;12.80;5.57;;;;;;;19.46;75.09;101226.94;5026602;28;20057;-73
2023/08/28 06:40:51;;;;;;;9.40;5.75;;;;;;;19.44;75.39;101223.44;5027901;28;20612;-72
2023/08/28 06:43:22;;;;;;;8.85;5.40;;;;;;;19.33;75.92;101214.66;5023539;28;20127;-72
2023/08/28 06:45:50;;;;;;;10.25;5.30;;;;;;;19.30;76.03;101226.03;5027919;28;20065;-72
2023/08/28 06:48:19;;;;;;;10.20;5.25;;;;;;;19.25;76.58;101227.78;5025614;28;20172;-72
2023/08/28 06:50:48;;;;;;;11.48;5.63;;;;;;;19.22;76.58;101222.56;5030888;28;20538;-71
2023/08/28 06:53:16;;;;;;;9.13;5.38;;;;;;;19.22;76.79;101230.41;5023312;28;21350;-72
2023/08/28 06:55:45;;;;;;;10.88;5.25;;;;;;;19.20;76.59;101233.03;5029865;28;20051;-72
2023/08/28 06:58:14;;;;;;;10.75;5.30;;;;;;;19.22;76.60;101230.41;5023256;28;20076;-73
2023/08/28 07:00:44;;;;;;;9.73;5.10;;;;;;;19.20;76.83;101233.03;5024555;28;20053;-72
2023/08/28 07:03:13;;;;;;;9.90;5.45;;;;;;;19.14;77.78;101229.53;5024347;28;20531;-71
2023/08/28 07:05:42;;;;;;;10.50;5.90;;;;;;;19.04;78.00;101229.50;5027692;28;20056;-72
2023/08/28 07:08:10;;;;;;;11.48;5.60;;;;;;;18.99;78.47;101235.63;5025403;28;20049;-72
2023/08/28 07:10:39;;;;;;;10.15;5.32;;;;;;;18.97;78.56;101238.22;5021639;28;20306;-72
2023/08/28 07:13:08;;;;;;;10.80;5.63;;;;;;;18.96;79.28;101244.34;5024918;28;20117;-72
2023/08/28 07:15:59;;;;;;;9.60;4.88;;;;;;;18.95;79.11;101244.34;5028515;28;20060;-72
2023/08/28 07:18:29;;;;;;;11.10;6.22;;;;;;;18.95;78.89;101244.34;5022833;28;20213;-72
2023/08/28 07:20:58;;;;;;;10.40;5.25;;;;;;;18.94;78.64;101251.31;5026115;28;20940;-74
2023/08/28 07:23:26;;;;;;;9.20;4.85;;;;;;;18.92;78.82;101252.19;5024093;28;20100;-72
2023/08/28 07:25:56;;;;;;;10.10;5.57;;;;;;;18.90;79.02;101246.97;5023152;28;20049;-73
2023/08/28 07:28:25;;;;;;;8.77;4.90;;;;;;;18.86;79.08;101245.19;5022571;28;20049;-73
2023/08/28 07:30:59;;;;;;;9.73;5.18;;;;;;;18.83;78.95;101248.69;5023920;28;20072;-72
2023/08/28 07:33:30;;;;;;;11.25;6.07;;;;;;;18.81;79.47;101250.41;5029163;28;20080;-73
2023/08/28 07:35:58;;;;;;;10.23;5.55;;;;;;;18.79;79.65;101249.53;5029269;28;20054;-73
2023/08/28 07:38:27;;;;;;;11.98;6.05;;;;;;;18.73;80.44;101253.84;5028234;28;20123;-71
2023/08/28 07:40:56;;;;;;;10.40;5.40;;;;;;;18.71;80.68;101255.59;5023826;28;20616;-73
2023/08/28 07:43:25;;;;;;;9.05;4.80;;;;;;;18.70;80.01;101253.84;5028589;28;20057;-72
2023/08/28 07:45:53;;;;;;;10.77;5.20;;;;;;;18.68;80.53;101250.34;5029028;28;20053;-73
2023/08/28 07:48:23;;;;;;;11.02;6.22;;;;;;;18.67;80.32;101251.19;5024829;28;20075;-73
2023/08/28 07:50:53;;;;;;;14.27;6.25;;;;;;;18.65;80.70;101248.59;5026798;28;20056;-73
2023/08/28 07:53:22;;;;;;;10.38;5.15;;;;;;;18.63;81.25;101245.06;5030516;28;20045;-73
2023/08/28 07:55:51;;;;;;;9.55;4.90;;;;;;;18.60;80.98;101243.31;5025207;28;20073;-73
2023/08/28 07:58:20;;;;;;;11.45;5.18;;;;;;;18.60;80.98;101248.56;5026776;28;20148;-72
2023/08/28 08:00:49;;;;;;;11.25;4.93;;;;;;;18.57;81.48;101248.53;5029433;28;20057;-71
2023/08/28 08:03:17;;;;;;;11.25;4.95;;;;;;;18.53;81.61;101243.28;5021616;28;20057;-73
2023/08/28 08:05:47;;;;;;;12.10;4.97;;;;;;;18.50;81.75;101240.66;5026541;28;20066;-72
2023/08/28 08:08:24;;;;;;;10.57;5.30;;;;;;;18.41;81.81;101238.84;5028036;28;20136;-72
2023/08/28 08:10:53;;;;;;;12.15;6.00;;;;;;;18.42;81.89;101243.25;5027223;28;20924;-72
2023/08/28 08:13:21;;;;;;;10.70;5.32;;;;;;;18.40;82.42;101240.59;5030665;28;20049;-72
2023/08/28 08:15:50;;;;;;;9.93;5.40;;;;;;;18.33;83.97;101248.44;5036775;28;20053;-72
2023/08/28 08:18:21;;;;;;;11.23;5.05;;;;;;;18.23;84.85;101246.59;5029551;28;20515;-72
2023/08/28 08:20:50;;;;;;;8.25;4.57;;;;;;;18.14;85.51;101257.91;5026830;28;20054;-72
2023/08/28 08:23:20;;;;;;;12.43;6.32;;;;;;;18.09;86.69;101244.78;5026772;28;20496;-72
2023/08/28 08:25:48;;;;;;;11.10;5.00;;;;;;;18.01;87.26;101243.88;5025675;28;20041;-72
2023/08/28 08:28:20;;;;;;;11.07;5.88;;;;;;;17.98;86.93;101246.44;5029317;28;20147;-72
2023/08/28 08:30:49;;;;;;;7.85;4.55;;;;;;;17.99;86.81;101248.22;5022748;28;20101;-72
2023/08/28 08:33:18;;;;;;;8.80;5.20;;;;;;;17.99;86.60;101248.22;5026004;28;20144;-72
2023/08/28 08:35:47;;;;;;;7.90;4.50;;;;;;;17.99;86.05;101248.22;5034719;28;20554;-71
2023/08/28 08:38:21;;;;;;;10.63;5.03;;;;;;;18.00;85.96;101244.72;5024752;28;20132;-70
2023/08/28 08:40:53;;;;;;;11.50;5.80;;;;;;;17.99;85.79;101248.22;5022129;28;20049;-71
2023/08/28 08:43:22;;;;;;;10.90;6.00;;;;;;;17.98;85.10;101242.09;5021835;28;20452;-72
2023/08/28 08:45:57;;;;;;;11.07;5.03;;;;;;;17.98;85.51;101246.44;5025934;28;20053;-71
2023/08/28 08:48:31;;;;;;;8.65;5.15;;;;;;;17.92;85.98;101251.66;5027842;28;20057;-71
2023/08/28 08:51:08;;;;;;;9.45;4.80;;;;;;;17.93;85.44;101242.94;5029834;28;20076;-72
2023/08/28 08:53:44;;;;;;;11.63;5.57;;;;;;;17.97;85.33;101242.09;5000581;28;20123;-71
2023/08/28 08:56:18;;;;;;;9.85;5.28;;;;;;;17.96;85.39;101242.97;4999175;28;20627;-71
2023/08/28 08:58:48;;;;;;;12.43;5.60;;;;;;;17.94;84.97;101229.84;5003868;28;20601;-71
2023/08/28 09:01:18;;;;;;;8.88;4.95;;;;;;;17.95;85.37;101231.59;4994303;28;20054;-72
2023/08/28 09:03:49;;;;;;;8.50;5.10;;;;;;;17.92;85.41;101225.47;5006972;28;20101;-70
2023/08/28 09:06:18;;;;;;;10.70;4.80;;;;;;;17.89;85.65;101238.53;5000590;28;20084;-72
2023/08/28 09:08:48;;;;;;;9.30;5.00;;;;;;;17.88;86.38;101224.56;4995659;28;20097;-71
2023/08/28 09:11:18;;;;;;;13.85;5.35;;;;;;;17.84;87.30;101233.25;5002851;28;20050;-71
2023/08/28 09:13:46;;;;;;;10.07;4.68;;;;;;;17.80;87.23;101232.34;4997852;28;20046;-72
2023/08/28 09:16:15;;;;;;;12.20;5.13;;;;;;;17.80;87.37;101234.09;5005814;28;20117;-70
2023/08/28 09:18:45;;;;;;;8.88;4.70;;;;;;;17.77;87.75;101232.34;5016638;28;20474;-71
2023/08/28 09:21:15;;;;;;;9.65;4.80;;;;;;;17.76;87.91;101227.06;5023992;28;20045;-71
2023/08/28 09:23:45;;;;;;;10.88;5.03;;;;;;;17.77;87.57;101220.97;5027569;28;20042;-70
2023/08/28 09:26:20;;;;;;;8.40;4.07;;;;;;;17.78;88.23;101213.13;5030043;28;20080;-71
2023/08/28 09:29:00;;;;;;;9.20;5.35;;;;;;;17.82;87.66;101218.41;5029444;28;20053;-71
2023/08/28 09:31:35;;;;;;;8.20;3.95;;;;;;;17.84;87.92;101214.94;5025855;28;20122;-71
2023/08/28 09:34:05;;;;;;;10.25;5.15;;;;;;;17.86;87.40;101217.56;5023932;28;20146;-71
2023/08/28 09:36:36;;;;;;;9.45;5.32;;;;;;;17.88;87.15;101214.09;5032480;28;20716;-71
2023/08/28 09:39:06;;;;;;;10.77;5.43;;;;;;;17.87;88.42;101220.22;5026993;28;20051;-70
2023/08/28 09:41:48;;;;;;;9.48;5.20;;;;;;;17.80;88.92;101218.38;5027294;28;20144;-70
2023/08/28 09:44:19;;;;;;;9.73;4.75;;;;;;;17.77;88.59;101210.50;5026667;28;20512;-71
2023/08/28 09:46:50;;;;;;;11.10;5.40;;;;;;;17.76;89.36;101225.31;5023713;28;20095;-72
2023/08/28 09:49:25;;;;;;;12.60;5.40;;;;;;;17.75;89.71;101233.16;5005218;28;20045;-72
2023/08/28 09:51:54;;;;;;;11.00;5.03;;;;;;;17.77;89.37;101227.09;4988524;28;20307;-72
2023/08/28 09:54:25;;;;;;;14.38;5.38;;;;;;;17.81;88.60;101228.00;4989668;28;20484;-71
2023/08/28 09:56:55;;;;;;;10.38;5.05;;;;;;;17.85;88.26;101229.78;4989987;28;20456;-71
2023/08/28 09:59:23;;;;;;;10.75;5.35;;;;;;;17.90;88.30;101224.59;4988373;28;20046;-72
2023/08/28 10:01:53;;;;;;;10.40;4.97;;;;;;;17.92;88.26;101225.47;4985491;28;20568;-72
2023/08/28 10:04:22;;;;;;;9.55;5.63;;;;;;;17.92;88.15;101221.13;4990179;28;20105;-73
2023/08/28 10:06:53;;;;;;;11.25;5.55;;;;;;;17.95;88.35;101220.25;4984096;28;20488;-72
2023/08/28 10:09:24;;;;;;;11.98;5.25;;;;;;;17.99;88.77;101222.03;4992248;28;20145;-71
2023/08/28 10:11:57;;;;;;;8.30;4.65;;;;;;;17.99;88.29;101219.41;4983807;28;20185;-73
2023/08/28 10:14:28;;;;;;;7.93;4.82;;;;;;;17.95;88.07;101212.41;4985443;28;20050;-71
2023/08/28 10:17:03;;;;;;;10.30;5.40;;;;;;;17.93;89.23;101227.22;4990113;28;20082;-71
2023/08/28 10:19:37;;;;;;;9.00;4.82;;;;;;;17.86;88.63;101225.44;4985924;28;20077;-71
2023/08/28 10:22:08;;;;;;;11.52;4.93;;;;;;;17.82;89.20;101227.16;4985991;28;20457;-71
2023/08/28 10:24:38;;;;;;;9.05;4.50;;;;;;;17.79;89.70;101220.09;4986978;28;20405;-71
2023/08/28 10:27:10;;;;;;;10.98;5.78;;;;;;;17.79;89.95;101224.47;4988215;28;20058;-71
2023/08/28 10:29:41;;;;;;;10.88;4.90;;;;;;;17.78;89.68;101222.72;4987730;28;20085;-72
2023/08/28 10:32:11;;;;;;;9.60;5.32;;;;;;;17.80;89.05;101227.09;4984453;28;20057;-72
2023/08/28 10:34:42;;;;;;;15.98;6.13;;;;;;;17.83;88.97;101230.66;4986747;28;20113;-72
2023/08/28 10:37:13;;;;;;;8.65;5.10;;;;;;;17.85;89.43;101228.94;4988735;28;20231;-72
2023/08/28 10:39:43;;;;;;;12.13;5.90;;;;;;;17.80;90.20;101232.34;4983373;28;20055;-71
2023/08/28 10:42:18;;;;;;;13.40;5.32;;;;;;;17.75;90.49;101234.06;4976530;28;20053;-73
2023/08/28 10:44:49;;;;;;;11.15;5.82;;;;;;;17.75;90.97;101231.44;4986445;28;20060;-71
2023/08/28 10:47:19;;;;;;;14.82;5.35;;;;;;;17.71;91.35;101229.66;4988147;28;20157;-72
2023/08/28 10:49:48;;;;;;;9.90;5.70;;;;;;;17.73;91.18;101230.56;4978246;28;20331;-72
2023/08/28 10:52:21;;;;;;;8.52;5.25;;;;;;;17.74;91.22;101224.44;4976914;28;20066;-72
2023/08/28 10:54:52;;;;;;;10.52;4.88;;;;;;;17.75;91.11;101227.94;4977193;28;20042;-72
2023/08/28 10:57:26;;;;;;;12.05;6.03;;;;;;;17.73;91.31;101230.56;4989213;28;20392;-73
2023/08/28 10:59:55;;;;;;;10.35;5.20;;;;;;;17.73;91.69;101222.69;4987334;28;20043;-71
2023/08/28 11:02:24;;;;;;;7.97;4.80;;;;;;;17.73;91.86;101230.56;4985283;28;20057;-71
2023/08/28 11:04:53;;;;;;;11.65;5.53;;;;;;;17.74;91.59;101229.66;4977973;28;20497;-71
2023/08/28 11:07:55;;;;;;;10.85;5.40;;;;;;;17.75;91.29;101228.81;4984246;28;20234;-71
2023/08/28 11:10:25;;;;;;;13.73;6.00;;;;;;;17.75;91.92;101233.16;4911879;29;20059;-71
2023/08/28 11:12:56;;;;;;;12.73;6.05;;;;;;;17.76;91.87;101227.06;4978920;28;20145;-71
2023/08/28 11:15:30;;;;;;;8.18;4.72;;;;;;;17.76;91.76;101234.94;4991665;28;20520;-72
2023/08/28 11:18:28;;;;;;;9.82;5.60;;;;;;;17.78;91.42;101236.69;4983052;28;20054;-72
2023/08/28 11:20:58;;;;;;;9.60;5.60;;;;;;;17.82;91.52;101237.63;4987104;28;20062;-72
2023/08/28 11:23:33;;;;;;;10.98;5.53;;;;;;;17.85;91.07;101239.41;4989955;28;20050;-70
2023/08/28 11:26:25;;;;;;;12.45;6.07;;;;;;;17.84;91.34;101242.84;4986437;28;20047;-71
2023/08/28 11:28:55;;;;;;;10.70;5.57;;;;;;;17.86;90.81;101235.91;4987842;28;20054;-71
2023/08/28 11:31:33;;;;;;;11.50;5.47;;;;;;;17.87;91.14;101235.91;4987881;28;20046;-72
2023/08/28 11:34:03;;;;;;;10.73;5.32;;;;;;;17.86;90.96;101226.28;4986212;28;20113;-72
2023/08/28 11:36:45;;;;;;;11.48;6.22;;;;;;;17.93;91.20;101237.69;4989043;28;20066;-72
2023/08/28 11:39:22;;;;;;;11.77;5.72;;;;;;;17.95;90.56;101233.34;4988175;28;20054;-72
2023/08/28 11:41:51;;;;;;;13.90;5.78;;;;;;;17.86;90.85;101225.44;4983589;28;20128;-71